Latest Weather Observations for Point Perpendicular

IDN60801

Issued at 5:22 pm EST Friday 1 July 2022 (issued every 10 minutes, with the page automatically refreshed every 10 minutes)

About weather observations | Map of weather stations | Latest weather observations for NSW | Other Formats
Station Details ID: 068151 Name: POINT PERPENDICULAR AWS Lat: -35.09 Lon: 150.80 Height: 85.0 m
Data from the previous 72 hours. | See also: Recent months at Point Perpendicular
Date/Time
EST
Temp
°C
App
Temp
°C
Dew
Point
°C
Rel
Hum
%
Delta-T
°C
Wind Press
QNH
hPa
Press
MSL
hPa
Rain since
9am
mm
Dir  Spd
km/h
Gust
km/h
Spd
kts
Gust
kts
01/05:00pm 12.9 9.3 12.0 94 0.5 S 22 37 12 20 1024.3 1024.3 31.4
01/04:31pm 12.6 7.5 10.5 87 1.1 S 28 46 15 25 1023.7 1023.7 30.4
01/04:30pm 12.7 7.7 10.8 88 1.0 S 28 43 15 23 1023.6 1023.6 30.4
01/04:00pm 12.7 8.6 11.3 91 0.7 S 24 39 13 21 1023.7 1023.7 28.0
01/03:30pm 12.8 7.2 11.5 92 0.7 S 32 48 17 26 1023.3 1023.4 26.6
01/03:00pm 12.7 7.9 11.6 93 0.6 S 28 44 15 24 1023.3 1023.4 25.4
01/02:32pm 12.7 7.9 11.8 94 0.5 S 28 46 15 25 1023.1 1023.2 22.2
01/02:30pm 12.5 8.1 11.6 94 0.5 S 26 46 14 25 1023.2 1023.3 21.8
01/02:00pm 13.6 10.1 12.2 91 0.8 SSW 22 33 12 18 1023.8 1023.8 11.0
01/01:30pm 13.0 9.9 11.7 92 0.7 SSW 19 30 10 16 1024.2 1024.2 9.4
01/01:00pm 12.6 9.3 11.7 94 0.5 SW 20 33 11 18 1024.4 1024.4 6.0
01/12:30pm 12.3 9.2 11.7 96 0.3 SW 19 32 10 17 1024.7 1024.7 2.6
01/12:00pm 11.8 8.3 11.0 95 0.4 WSW 20 39 11 21 1025.1 1025.1 2.2
01/11:30am 11.9 7.9 10.6 92 0.7 SW 22 35 12 19 1025.3 1025.3 0.0
01/11:00am 12.0 7.5 10.1 88 1.0 SW 24 33 13 18 1025.8 1025.8 0.0
01/10:30am 12.1 7.9 9.8 86 1.2 SW 22 35 12 19 1025.7 1025.7 0.0
01/10:00am 13.0 8.7 10.7 86 1.2 SW 24 43 13 23 1025.5 1025.5 0.0
01/09:42am 12.6 7.4 10.1 85 1.3 SW 28 46 15 25 1025.6 1025.6 0.0
01/09:30am 12.7 7.2 10.4 86 1.2 SW 30 46 16 25 1025.5 1025.5 0.0
01/09:09am 13.3 7.9 9.4 77 2.0 SW 28 48 15 26 1025.8 1025.8 0.0
01/09:00am 13.4 8.4 9.6 78 1.9 SW 26 39 14 21 1025.9 1025.9 0.0
01/08:30am 13.4 8.4 9.6 78 2.0 SSW 26 43 14 23 1025.6 1025.6 0.0
01/08:00am 13.5 8.7 9.0 74 2.3 SW 24 37 13 20 1025.5 1025.5 0.0
01/07:35am 13.7 8.1 8.7 72 2.5 SSW 28 46 15 25 1025.3 1025.3 0.0
01/07:30am 13.8 8.0 9.5 75 2.2 SSW 30 46 16 25 1025.3 1025.3 0.0
01/07:00am 13.5 9.5 8.4 71 2.5 SW 19 30 10 16 1025.8 1025.8 0.0
01/06:30am 12.8 9.5 8.1 73 2.3 SW 15 26 8 14 1025.9 1025.9 0.0
01/06:00am 12.5 9.2 6.3 66 2.9 WSW 13 20 7 11 1026.0 1026.0 0.0
01/05:30am 12.2 8.9 6.5 68 2.7 WSW 13 17 7 9 1025.8 1025.8 0.0
01/05:00am 12.1 9.9 5.5 64 3.1 W 6 13 3 7 1025.9 1025.9 0.0
01/04:30am 13.0 9.6 5.9 62 3.4 WSW 13 24 7 13 1025.7 1025.7 0.0
01/04:00am 13.4 11.6 7.0 65 3.1 W 6 9 3 5 1025.7 1025.7 0.0
01/03:30am 13.7 11.3 7.2 65 3.2 WSW 9 22 5 12 1025.5 1025.5 0.0
01/03:00am 13.3 10.8 8.4 72 2.4 SW 11 20 6 11 1025.4 1025.4 0.0
01/02:30am 12.9 9.9 7.8 71 2.5 SW 13 19 7 10 1025.2 1025.2 0.0
01/02:00am 12.9 10.4 8.0 72 2.4 WSW 11 19 6 10 1025.4 1025.4 0.0
01/01:30am 13.1 10.2 8.2 72 2.4 SW 13 19 7 10 1025.5 1025.5 0.0
01/01:00am 13.3 10.5 8.4 72 2.4 SW 13 20 7 11 1025.4 1025.4 0.0
01/12:30am 13.0 9.7 8.1 72 2.4 SW 15 22 8 12 1025.4 1025.4 0.0
01/12:00am 13.6 11.0 7.6 67 2.9 SW 11 19 6 10 1025.5 1025.5 0.0
 
Date/Time
EST
Temp
°C
App
Temp
°C
Dew
Point
°C
Rel
Hum
%
Delta-T
°C
Wind Press
QNH
hPa
Press
MSL
hPa
Rain since
9am
mm
Dir  Spd
km/h
Gust
km/h
Spd
kts
Gust
kts
30/11:30pm 13.7 10.7 7.9 68 2.9 SW 13 22 7 12 1025.4 1025.4 0.0
30/11:00pm 13.6 11.2 8.7 72 2.5 SW 11 19 6 10 1025.7 1025.7 0.0
30/10:30pm 13.3 9.9 7.7 69 2.8 WSW 15 24 8 13 1025.8 1025.8 0.0
30/10:00pm 14.6 10.3 7.9 64 3.3 SSW 20 28 11 15 1025.3 1025.3 0.0
30/09:30pm 14.6 10.3 7.9 64 3.3 SSW 20 32 11 17 1025.0 1025.0 0.0
30/09:00pm 14.7 10.4 8.0 64 3.3 SSW 20 30 11 16 1024.9 1024.9 0.0
30/08:30pm 14.8 10.4 7.6 62 3.6 SSW 20 30 11 16 1025.0 1025.0 0.0
30/08:00pm 14.8 11.0 7.4 61 3.6 SSW 17 26 9 14 1025.0 1025.0 0.0
30/07:30pm 14.8 11.3 7.4 61 3.7 SSW 15 24 8 13 1024.8 1024.8 0.0
30/07:00pm 14.8 11.4 7.6 62 3.6 S 15 26 8 14 1024.6 1024.5 0.0
30/06:30pm 14.8 11.3 7.1 60 3.8 S 15 26 8 14 1024.5 1024.4 0.0
30/06:00pm 14.8 10.9 6.9 59 3.9 S 17 26 9 14 1024.1 1024.0 0.0
30/05:30pm 14.7 10.7 6.5 58 4.0 S 17 26 9 14 1023.9 1023.8 0.0
30/05:00pm 14.7 10.9 5.8 55 4.2 S 15 24 8 13 1023.8 1023.7 0.0
30/04:30pm 14.6 10.4 5.7 55 4.2 S 17 24 9 13 1023.8 1023.7 0.0
30/04:00pm 14.8 10.2 5.6 54 4.4 SSW 19 28 10 15 1023.3 1023.3 0.0
30/03:30pm 14.7 10.7 6.8 59 3.9 S 17 26 9 14 1023.6 1023.5 0.0
30/03:00pm 14.9 11.1 6.0 55 4.3 SSW 15 24 8 13 1023.3 1023.3 0.0
30/02:30pm 14.9 10.7 3.7 47 5.1 SSW 15 22 8 12 1023.3 1023.3 0.0
30/02:00pm 15.2 11.3 3.4 45 5.4 SSW 13 22 7 12 1023.3 1023.3 0.0
30/01:30pm 15.7 12.0 4.4 47 5.3 S 13 19 7 10 1023.2 1023.2 0.0
30/01:00pm 15.2 11.0 3.7 46 5.3 SSW 15 20 8 11 1023.2 1023.2 0.0
30/12:30pm 15.6 12.1 3.7 45 5.5 SSW 11 19 6 10 1023.4 1023.4 0.0
30/12:00pm 15.3 12.6 3.8 46 5.3 WSW 7 13 4 7 1023.8 1023.7 0.0
30/11:30am 15.3 12.9 5.2 51 4.8 WSW 7 13 4 7 1024.0 1023.9 0.0
30/11:00am 14.6 11.9 5.4 54 4.3 WSW 9 17 5 9 1024.0 1023.9 0.0
30/10:30am 13.5 11.2 5.7 59 3.7 WSW 7 13 4 7 1024.5 1024.4 0.0
30/10:00am 13.7 11.4 5.6 58 3.8 WSW 7 13 4 7 1024.3 1024.2 0.0
30/09:30am 13.2 10.5 5.4 59 3.7 WSW 9 15 5 8 1024.0 1023.9 0.0
30/09:00am 13.3 11.0 5.5 59 3.7 WSW 7 15 4 8 1023.7 1023.6 0.0
30/08:30am 13.0 10.4 5.9 62 3.4 WSW 9 15 5 8 1023.8 1023.7 0.0
30/08:00am 12.9 9.9 5.8 62 3.3 WSW 11 17 6 9 1023.7 1023.6 0.0
30/07:30am 12.8 10.1 5.5 61 3.4 WSW 9 17 5 9 1023.0 1023.0 0.0
30/07:00am 13.4 11.9 6.7 64 3.2 W 4 9 2 5 1022.4 1022.4 0.0
30/06:30am 13.3 11.7 6.4 63 3.3 W 4 4 2 2 1022.3 1022.3 0.0
30/06:00am 13.0 10.8 6.4 64 3.1 WSW 7 15 4 8 1021.9 1021.9 0.0
30/05:30am 12.7 10.6 6.5 66 3.0 WSW 7 15 4 8 1021.5 1021.5 0.0
30/05:00am 12.8 10.9 6.6 66 3.0 W 6 11 3 6 1021.7 1021.7 0.0
30/04:30am 12.3 10.3 7.2 71 2.5 WNW 7 11 4 6 1021.2 1021.2 0.0
30/04:00am 12.5 10.1 7.2 70 2.6 WNW 9 17 5 9 1021.0 1021.0 0.0
30/03:30am 12.4 8.9 7.1 70 2.6 NW 15 22 8 12 1020.8 1020.8 0.0
30/03:00am 12.6 10.5 6.6 67 2.9 WNW 7 13 4 7 1020.1 1020.1 0.0
30/02:30am 12.6 10.2 7.1 69 2.7 NW 9 19 5 10 1020.5 1020.5 0.0
30/02:00am 12.3 9.1 6.8 69 2.6 NW 13 15 7 8 1020.6 1020.6 0.0
30/01:30am 12.6 9.3 6.6 67 2.9 NW 13 17 7 9 1021.1 1021.1 0.0
30/01:00am 12.7 9.4 6.3 65 3.0 NW 13 17 7 9 1021.3 1021.3 0.0
30/12:30am 12.3 9.0 6.4 67 2.8 NW 13 19 7 10 1021.1 1021.1 0.0
30/12:00am 12.1 8.8 6.4 68 2.7 NW 13 15 7 8 1021.1 1021.1 0.0
 
Date/Time
EST
Temp
°C
App
Temp
°C
Dew
Point
°C
Rel
Hum
%
Delta-T
°C
Wind Press
QNH
hPa
Press
MSL
hPa
Rain since
9am
mm
Dir  Spd
km/h
Gust
km/h
Spd
kts
Gust
kts
29/11:30pm 12.3 8.6 6.1 66 2.9 NW 15 22 8 12 1021.5 1021.5 0.0
29/11:00pm 12.3 8.6 6.1 66 2.9 NNW 15 20 8 11 1021.5 1021.5 0.0
29/10:30pm 12.6 8.5 6.0 64 3.1 NNW 17 24 9 13 1021.8 1021.8 0.0
29/10:00pm 12.7 8.5 5.6 62 3.3 NNW 17 22 9 12 1021.5 1021.5 0.0
29/09:30pm 12.7 9.3 5.8 63 3.3 NNW 13 20 7 11 1021.7 1021.7 0.0
29/09:00pm 12.8 9.2 6.6 66 3.0 NNW 15 20 8 11 1021.9 1021.9 0.0
29/08:30pm 13.1 9.3 5.8 61 3.5 NNW 15 19 8 10 1022.0 1022.0 0.0
29/08:00pm 13.5 10.0 5.4 58 3.8 NNW 13 17 7 9 1021.8 1021.8 0.0
29/07:30pm 13.5 10.3 5.2 57 3.9 NNW 11 13 6 7 1021.8 1021.8 0.0
29/07:00pm 13.0 9.9 5.4 60 3.5 N 11 13 6 7 1021.8 1021.8 0.0
29/06:30pm 13.4 10.0 5.8 60 3.6 NNW 13 19 7 10 1022.1 1022.1 0.0
29/06:00pm 13.3 10.2 5.5 59 3.7 NNW 11 11 6 6 1022.1 1022.1 0.0
29/05:30pm 13.3 10.3 6.2 62 3.4 NNW 11 13 6 7 1022.1 1022.1 0.0
29/05:00pm 13.1 10.6 6.5 64 3.2 NNW 9 11 5 6 1022.1 1022.1 0.0
29/04:30pm 13.6 11.4 6.2 61 3.5 NNW 7 9 4 5 1022.0 1022.0 0.0
29/04:00pm 14.6 12.4 6.2 57 4.0 NW 7 15 4 8 1022.2 1022.2 0.0
29/03:30pm 15.8 13.2 7.8 59 4.0 NNW 11 17 6 9 1022.4 1022.4 0.0
29/03:00pm 15.1 12.3 6.9 58 4.0 N 11 15 6 8 1022.3 1022.3 0.0
29/02:30pm 14.9 12.0 6.7 58 4.0 NW 11 15 6 8 1022.5 1022.5 0.0
29/02:00pm 15.4 11.3 6.4 55 4.4 NNW 17 22 9 12 1022.6 1022.6 0.0
29/01:30pm 15.7 11.4 7.0 56 4.3 NNW 19 26 10 14 1022.9 1022.9 0.0
29/01:00pm 15.3 11.3 6.6 56 4.2 NW 17 30 9 16 1023.2 1023.2 0.0
29/12:30pm 14.8 11.1 6.4 57 4.1 NW 15 32 8 17 1023.8 1023.7 0.0
29/12:00pm 14.3 9.9 6.6 60 3.7 NW 19 32 10 17 1024.6 1024.5 0.0
29/11:30am 14.3 9.3 6.6 60 3.7 NW 22 33 12 18 1025.2 1025.2 0.0
29/11:00am 13.6 8.2 6.2 61 3.5 NW 24 37 13 20 1025.7 1025.7 0.0
29/10:30am 13.0 7.9 6.1 63 3.3 NW 22 41 12 22 1025.8 1025.8 0.0
29/10:00am 12.2 7.6 6.3 67 2.8 NW 20 33 11 18 1026.0 1026.0 0.0
29/09:30am 11.8 7.4 6.5 70 2.5 NW 19 33 10 18 1026.0 1026.0 0.0
29/09:00am 11.9 6.9 6.4 69 2.6 NW 22 32 12 17 1026.1 1026.1 0.0
29/08:30am 11.3 7.2 6.2 71 2.4 NW 17 30 9 16 1026.0 1026.0 0.0
29/08:00am 11.1 7.5 6.8 75 2.0 WNW 15 30 8 16 1025.9 1025.9 0.0
29/07:30am 10.9 7.6 6.3 73 2.2 WNW 13 22 7 12 1025.9 1025.9 0.0
29/07:00am 11.0 7.8 6.9 76 1.9 NW 13 22 7 12 1025.7 1025.7 0.0
29/06:30am 10.6 7.5 7.3 80 1.6 NW 13 20 7 11 1025.7 1025.7 0.0
29/06:00am 10.8 8.1 7.5 80 1.6 WNW 11 20 6 11 1026.0 1026.0 0.0
29/05:30am 10.8 8.0 7.1 78 1.8 WNW 11 26 6 14 1025.9 1025.9 0.0
29/05:00am 10.5 8.2 7.6 82 1.4 WNW 9 22 5 12 1025.8 1025.8 0.0
29/04:30am 10.3 7.9 7.2 81 1.5 WNW 9 13 5 7 1025.8 1025.8 0.0
29/04:00am 10.5 8.5 7.2 80 1.6 WNW 7 19 4 10 1026.3 1026.3 0.0
29/03:30am 10.3 7.2 7.4 82 1.4 NW 13 19 7 10 1026.4 1026.4 0.0
29/03:00am 10.1 7.4 7.3 83 1.3 WNW 11 20 6 11 1026.8 1026.8 0.0
29/02:30am 10.1 7.0 7.2 82 1.4 NW 13 17 7 9 1027.1 1027.1 0.0
29/02:00am 10.1 7.3 7.0 81 1.5 NW 11 15 6 8 1027.1 1027.1 0.0
29/01:30am 9.7 6.9 7.1 84 1.2 WNW 11 15 6 8 1027.2 1027.2 0.0
29/01:00am 9.5 6.7 6.9 84 1.2 WNW 11 15 6 8 1027.4 1027.4 0.0
29/12:30am 9.7 7.3 7.1 84 1.2 NW 9 13 5 7 1027.4 1027.4 0.0
29/12:00am 9.6 6.9 7.4 86 1.0 NW 11 13 6 7 1027.9 1027.9 0.0
 
Date/Time
EST
Temp
°C
App
Temp
°C
Dew
Point
°C
Rel
Hum
%
Delta-T
°C
Wind Press
QNH
hPa
Press
MSL
hPa
Rain since
9am
mm
Dir  Spd
km/h
Gust
km/h
Spd
kts
Gust
kts
28/11:30pm 9.9 7.6 7.5 85 1.1 NW 9 13 5 7 1028.0 1028.0 0.0
28/11:00pm 10.2 8.1 8.1 87 1.0 WNW 9 13 5 7 1028.2 1028.2 0.0
28/10:30pm 10.6 9.6 8.7 88 0.9 WNW 4 6 2 3 1028.4 1028.4 0.0
28/10:00pm 10.6 8.5 8.4 86 1.1 NW 9 11 5 6 1028.7 1028.7 0.0
28/09:30pm 11.1 9.5 8.8 86 1.1 WNW 7 7 4 4 1029.0 1029.0 0.0
28/09:00pm 12.2 11.4 9.6 84 1.3 WNW 4 6 2 3 1029.3 1029.3 0.0
28/08:30pm 12.6 12.4 8.9 78 1.9 CALM 0 4 0 2 1029.5 1029.5 0.0
28/08:00pm 13.1 11.6 8.6 74 2.2 SW 6 7 3 4 1029.7 1029.7 0.0
28/07:30pm 13.1 11.5 8.0 71 2.5 S 6 9 3 5 1029.6 1029.6 0.0
28/07:00pm 13.4 11.4 8.5 72 2.4 SSW 9 13 5 7 1029.7 1029.7 0.0
28/06:30pm 13.2 10.9 7.6 69 2.8 SSW 9 13 5 7 1029.8 1029.8 0.0
28/06:00pm 13.2 10.9 7.6 69 2.7 SSW 9 13 5 7 1029.8 1029.8 0.0
28/05:30pm 13.1 10.4 7.3 68 2.8 SSW 11 15 6 8 1029.8 1029.8 0.0

Other formats

Comma delimited format used in spreadsheet applications
http://www.bom.gov.au/fwo/IDN60801/IDN60801.95940.axf

JavaScript Object Notation format (JSON) in row-major order
http://www.bom.gov.au/fwo/IDN60801/IDN60801.95940.json

Data quality

Most of these data are generated automatically and are frequently updated. Quality checks on data are not normally performed. It is possible for incorrect values to appear. Refer to information at About Latest Weather Observations and please check the disclaimer before using these data.